Time;durP1;ratioP1;P1;durP2;ratioP2;P2;SDS_P1;SDS_P2;PMS_P1;PMS_P2;Temp;Humidity;BMP_temperature;BMP_pressure;BME280_temperature;BME280_humidity;BME280_pressure;Samples;Min_cycle;Max_cycle;Signal;HPM_P1;HPM_P2
2022/11/18 00:00:21;;;;;;;;;;;;;;;5.87;82.85;99220.03;5075991;28;19912;-32
2022/11/18 00:02:46;;;;;;;;;;;;;;;5.86;83.31;99224.41;5075975;28;19939;-33
2022/11/18 00:05:11;;;;;;;;;;;;;;;5.86;83.32;99218.28;5067253;28;19971;-32
2022/11/18 00:07:36;;;;;;;;;;;;;;;5.86;82.90;99228.75;5068226;28;20438;-33
2022/11/18 00:10:02;;;;;;;;;;;;;;;5.86;83.30;99223.53;5065139;28;19920;-33
2022/11/18 00:15:11;;;;;;;;;;;;;;;5.86;83.05;99218.28;5078215;28;19923;-32
2022/11/18 00:17:37;;;;;;;;;;;;;;;5.84;82.97;99215.69;5055709;28;19917;-33
2022/11/18 00:20:02;;;;;;;;;;;;;;;5.84;83.31;99212.22;5062307;28;19924;-33
2022/11/18 00:22:27;;;;;;;;;;;;;;;5.84;83.39;99214.84;5075742;28;19924;-32
2022/11/18 00:24:52;;;;;;;;;;;;;;;5.85;83.33;99211.34;5075326;28;19921;-32
2022/11/18 00:27:18;;;;;;;;;;;;;;;5.85;82.93;99212.22;5075027;28;19917;-33
2022/11/18 00:29:43;;;;;;;;;;;;;;;5.85;82.85;99211.34;5073486;28;19921;-33
2022/11/18 00:32:08;;;;;;;;;;;;;;;5.83;83.39;99213.13;5074473;28;19920;-33
2022/11/18 00:34:33;;;;;;;;;;;;;;;5.83;83.24;99205.28;5081292;28;19991;-33
2022/11/18 00:36:58;;;;;;;;;;;;;;;5.82;83.08;99207.00;5080371;28;19999;-32
2022/11/18 00:39:24;;;;;;;;;;;;;;;5.83;83.32;99207.88;5071000;28;19978;-32
2022/11/18 00:44:34;;;;;;;;;;;;;;;5.83;83.02;99218.34;5073731;28;20402;-32
2022/11/18 00:46:59;;;;;;;;;;;;;;;5.83;82.89;99215.75;5059951;28;19917;-33
2022/11/18 00:49:24;;;;;;;;;;;;;;;5.82;83.40;99222.72;5072434;28;19917;-34
2022/11/18 00:51:49;;;;;;;;;;;;;;;5.81;82.91;99233.19;5073301;28;19927;-33
2022/11/18 00:54:14;;;;;;;;;;;;;;;5.81;83.05;99228.84;5072040;28;19923;-33
2022/11/18 00:56:40;;;;;;;;;;;;;;;5.81;83.23;99231.44;5074712;28;19915;-33
2022/11/18 00:59:05;;;;;;;;;;;;;;;5.80;83.10;99242.78;5068230;28;19917;-34
2022/11/18 01:01:30;;;;;;;;;;;;;;;5.80;83.54;99239.31;5075107;28;19936;-31
2022/11/18 01:03:56;;;;;;;;;;;;;;;5.78;83.03;99227.09;5086394;28;19942;-32
2022/11/18 01:06:21;;;;;;;;;;;;;;;5.78;83.26;99232.34;5081430;28;19983;-32
2022/11/18 01:08:47;;;;;;;;;;;;;;;5.77;83.17;99237.63;5074864;28;19922;-32
2022/11/18 01:13:55;;;;;;;;;;;;;;;5.77;83.27;99240.22;5073769;28;19923;-31
2022/11/18 01:16:22;;;;;;;;;;;;;;;5.77;83.05;99246.31;5073018;28;19917;-31
2022/11/18 01:18:47;;;;;;;;;;;;;;;5.76;82.85;99238.47;5074787;28;19999;-32
2022/11/18 01:21:12;;;;;;;;;;;;;;;5.76;83.31;99247.19;5070938;28;19954;-31
2022/11/18 01:23:37;;;;;;;;;;;;;;;5.77;82.53;99246.31;5074800;28;19931;-34
2022/11/18 01:26:04;;;;;;;;;;;;;;;5.75;83.00;99237.63;5072258;28;19920;-32
2022/11/18 01:28:29;;;;;;;;;;;;;;;5.76;83.21;99239.34;5072370;28;19913;-32
2022/11/18 01:30:54;;;;;;;;;;;;;;;5.75;83.07;99232.41;5066567;28;19923;-32
2022/11/18 01:33:19;;;;;;;;;;;;;;;5.73;83.16;99223.69;5075399;28;19923;-30
2022/11/18 01:35:45;;;;;;;;;;;;;;;5.75;82.82;99231.53;5078800;28;19916;-32
2022/11/18 01:38:10;;;;;;;;;;;;;;;5.74;82.65;99225.41;5072068;28;19917;-32
2022/11/18 01:40:36;;;;;;;;;;;;;;;5.74;82.87;99222.78;5077413;28;19931;-32
2022/11/18 01:43:01;;;;;;;;;;;;;;;5.74;83.02;99225.41;5073573;28;20299;-32
2022/11/18 01:45:28;;;;;;;;;;;;;;;5.74;83.17;99230.66;5079883;28;19961;-32
2022/11/18 01:47:58;;;;;;;;;;;;;;;5.74;83.19;99232.41;5071679;28;19968;-32
2022/11/18 01:50:26;;;;;;;;;;;;;;;5.74;82.93;99241.09;5073234;28;19916;-31
2022/11/18 01:52:52;;;;;;;;;;;;;;;5.74;83.35;99241.09;5074089;28;19927;-31
2022/11/18 01:55:18;;;;;;;;;;;;;;;5.74;83.26;99232.41;5077564;28;19916;-33
2022/11/18 01:57:44;;;;;;;;;;;;;;;5.73;83.32;99221.06;5084108;28;19916;-32
2022/11/18 02:00:10;;;;;;;;;;;;;;;5.73;83.23;99217.56;5080760;28;19969;-31
2022/11/18 02:02:35;;;;;;;;;;;;;;;5.72;82.89;99216.72;5075285;28;19924;-32
2022/11/18 02:05:02;;;;;;;;;;;;;;;5.71;83.11;99225.47;5073321;28;19944;-32
2022/11/18 02:07:27;;;;;;;;;;;;;;;5.72;83.05;99232.44;5065090;28;19923;-32
2022/11/18 02:09:52;;;;;;;;;;;;;;;5.73;83.30;99234.16;5067310;28;19921;-33
2022/11/18 02:12:18;;;;;;;;;;;;;;;5.72;83.27;99234.16;5065142;28;19924;-31
2022/11/18 02:14:43;;;;;;;;;;;;;;;5.70;83.54;99239.41;5067345;28;20031;-32
2022/11/18 02:17:15;;;;;;;;;;;;;;;5.71;82.71;99230.72;5063205;28;20337;-34
2022/11/18 02:19:40;;;;;;;;;;;;;;;5.71;83.01;99230.72;5078711;28;20344;-32
2022/11/18 02:22:22;;;;;;;;;;;;;;;5.72;83.18;99235.03;5065150;28;19917;-32
2022/11/18 02:25:06;;;;;;;;;;;;;;;5.71;83.32;99235.06;5077812;28;19955;-33
2022/11/18 02:27:43;;;;;;;;;;;;;;;5.69;82.68;99237.69;5074663;28;19925;-33
2022/11/18 02:30:09;;;;;;;;;;;;;;;5.69;83.18;99227.22;5075768;28;20393;-32
2022/11/18 02:32:43;;;;;;;;;;;;;;;5.69;82.90;99232.47;5076866;28;19920;-32
2022/11/18 02:35:23;;;;;;;;;;;;;;;5.68;83.04;99227.25;5073658;28;19926;-32
2022/11/18 02:37:50;;;;;;;;;;;;;;;5.69;82.95;99231.59;5056767;28;19927;-32
2022/11/18 02:40:15;;;;;;;;;;;;;;;5.69;82.86;99228.97;5080055;28;19916;-32
2022/11/18 02:42:40;;;;;;;;;;;;;;;5.69;83.26;99236.81;5063204;28;19922;-32
2022/11/18 02:45:07;;;;;;;;;;;;;;;5.66;83.04;99237.72;5065459;28;19917;-32
2022/11/18 02:47:32;;;;;;;;;;;;;;;5.67;83.09;99239.44;5084323;28;20014;-32
2022/11/18 02:49:59;;;;;;;;;;;;;;;5.67;83.10;99239.44;5071299;28;20357;-32
2022/11/18 02:52:24;;;;;;;;;;;;;;;5.66;83.30;99237.72;5060740;28;19970;-32
2022/11/18 02:54:49;;;;;;;;;;;;;;;5.67;83.09;99247.28;5070166;28;19920;-32
2022/11/18 02:57:18;;;;;;;;;;;;;;;5.66;83.56;99250.81;5055667;28;19981;-32
2022/11/18 02:59:43;;;;;;;;;;;;;;;5.68;83.11;99253.41;5068908;28;20367;-31
2022/11/18 03:02:13;;;;;;;;;;;;;;;5.67;83.16;99249.06;5068076;28;19923;-34
2022/11/18 03:04:38;;;;;;;;;;;;;;;5.67;82.79;99251.69;5067698;28;19916;-33
2022/11/18 03:07:09;;;;;;;;;;;;;;;5.67;83.44;99249.91;5070872;28;19920;-32
2022/11/18 03:09:35;;;;;;;;;;;;;;;5.66;83.18;99253.41;5072039;28;20025;-32
2022/11/18 03:12:13;;;;;;;;;;;;;;;5.67;83.21;99259.53;5068064;28;19927;-31
2022/11/18 03:14:56;;;;;;;;;;;;;;;5.67;83.07;99267.38;5068238;28;19917;-31
2022/11/18 03:17:57;;;;;;;;;;;;;;;5.64;82.44;99269.13;5068362;28;19917;-30
2022/11/18 03:20:29;;;;;;;;;;;;;;;5.65;83.20;99277.84;4991753;28;19925;-30
2022/11/18 03:22:56;;;;;;;;;;;;;;;5.63;83.14;99280.47;5044745;28;19924;-31
2022/11/18 03:25:23;;;;;;;;;;;;;;;5.64;83.14;99289.22;5065943;28;19916;-31
2022/11/18 03:28:17;;;;;;;;;;;;;;;5.64;83.28;99289.22;5069066;28;19927;-31
2022/11/18 03:30:45;;;;;;;;;;;;;;;5.63;83.14;99292.69;5061850;28;19943;-31
2022/11/18 03:33:14;;;;;;;;;;;;;;;5.65;82.62;99289.19;5071207;28;19973;-31
2022/11/18 03:35:41;;;;;;;;;;;;;;;5.62;82.79;99289.22;5070425;28;19920;-31
2022/11/18 03:38:07;;;;;;;;;;;;;;;5.62;82.86;99297.06;5071359;28;19923;-31
2022/11/18 03:40:33;;;;;;;;;;;;;;;5.61;82.66;99307.56;5073671;28;19952;-31
2022/11/18 03:43:02;;;;;;;;;;;;;;;5.62;82.75;99309.28;5066806;28;20288;-31
2022/11/18 03:45:29;;;;;;;;;;;;;;;5.62;82.65;99314.50;5072391;28;19924;-31
2022/11/18 03:47:57;;;;;;;;;;;;;;;5.61;82.94;99320.63;5065163;28;19972;-31
2022/11/18 03:50:24;;;;;;;;;;;;;;;5.60;82.83;99317.13;5075602;28;20417;-31
2022/11/18 03:52:49;;;;;;;;;;;;;;;5.59;82.71;99314.53;5072735;28;19928;-31
2022/11/18 03:55:16;;;;;;;;;;;;;;;5.59;82.67;99318.03;5074706;28;19916;-31
2022/11/18 03:57:53;;;;;;;;;;;;;;;5.60;82.65;99330.22;5068798;28;20432;-31
2022/11/18 04:00:19;;;;;;;;;;;;;;;5.60;82.98;99326.75;5070554;28;20070;-30
2022/11/18 04:02:44;;;;;;;;;;;;;;;5.59;83.16;99335.47;5072733;28;20425;-30
2022/11/18 04:05:10;;;;;;;;;;;;;;;5.58;82.76;99338.97;5069223;28;19939;-30
2022/11/18 04:07:37;;;;;;;;;;;;;;;5.58;82.54;99344.19;5076492;28;19924;-30
2022/11/18 04:10:02;;;;;;;;;;;;;;;5.58;82.57;99346.81;5070740;28;20289;-30
2022/11/18 04:12:28;;;;;;;;;;;;;;;5.56;82.81;99349.44;5073338;28;20367;-30
2022/11/18 04:14:54;;;;;;;;;;;;;;;5.57;82.79;99348.53;5077928;28;19916;-30
2022/11/18 04:17:20;;;;;;;;;;;;;;;5.57;82.33;99342.47;5077373;28;19982;-30
2022/11/18 04:19:48;;;;;;;;;;;;;;;5.56;82.82;99345.94;5082384;28;19920;-30
2022/11/18 04:22:13;;;;;;;;;;;;;;;5.55;82.59;99347.72;5076177;28;20367;-31
2022/11/18 04:24:38;;;;;;;;;;;;;;;5.55;82.79;99346.84;5070457;28;19965;-31
2022/11/18 04:27:04;;;;;;;;;;;;;;;5.55;82.18;99341.59;5077802;28;20019;-31
2022/11/18 04:29:30;;;;;;;;;;;;;;;5.54;82.85;99350.34;5086366;28;19924;-31
2022/11/18 04:31:55;;;;;;;;;;;;;;;5.54;82.31;99355.56;5076303;28;19951;-31
2022/11/18 04:34:20;;;;;;;;;;;;;;;5.52;82.41;99353.84;5074330;28;19920;-30
2022/11/18 04:36:45;;;;;;;;;;;;;;;5.51;82.32;99362.56;5078035;28;19916;-30
2022/11/18 04:39:11;;;;;;;;;;;;;;;5.51;82.63;99362.56;5077317;28;19961;-30
2022/11/18 04:41:54;;;;;;;;;;;;;;;5.51;82.25;99361.72;5064773;28;19943;-33
2022/11/18 04:44:27;;;;;;;;;;;;;;;5.49;82.63;99364.34;5066113;28;19923;-32
2022/11/18 04:46:52;;;;;;;;;;;;;;;5.49;82.52;99361.72;5068785;28;19917;-34
2022/11/18 04:49:18;;;;;;;;;;;;;;;5.50;82.73;99362.56;5066635;28;19916;-32
2022/11/18 04:51:45;;;;;;;;;;;;;;;5.50;82.43;99367.78;5068601;28;19936;-34
2022/11/18 04:54:10;;;;;;;;;;;;;;;5.50;82.70;99371.28;5074045;28;19916;-33
2022/11/18 04:56:36;;;;;;;;;;;;;;;5.49;82.78;99377.41;5070834;28;19995;-33
2022/11/18 04:59:02;;;;;;;;;;;;;;;5.48;82.32;99370.44;5071507;28;20318;-33
2022/11/18 05:01:27;;;;;;;;;;;;;;;5.48;82.41;99374.81;5064411;28;19923;-33
2022/11/18 05:03:55;;;;;;;;;;;;;;;5.47;82.36;99375.69;5072310;28;19916;-33
2022/11/18 05:06:20;;;;;;;;;;;;;;;5.45;82.56;99370.47;5069456;28;19916;-32
2022/11/18 05:08:45;;;;;;;;;;;;;;;5.44;82.61;99376.56;5081205;28;19934;-31
2022/11/18 05:13:54;;;;;;;;;;;;;;;5.43;82.27;99376.59;5063432;28;19927;-31
2022/11/18 05:16:20;;;;;;;;;;;;;;;5.41;82.43;99376.63;5065291;28;19920;-33
2022/11/18 05:18:45;;;;;;;;;;;;;;;5.41;82.78;99379.22;5063802;28;19924;-32
2022/11/18 05:21:11;;;;;;;;;;;;;;;5.42;81.98;99380.97;5068147;28;20399;-33
2022/11/18 05:23:36;;;;;;;;;;;;;;;5.41;82.55;99389.69;5079123;28;19916;-32
2022/11/18 05:26:04;;;;;;;;;;;;;;;5.41;82.61;99389.69;5075074;28;19923;-32
2022/11/18 05:28:30;;;;;;;;;;;;;;;5.41;82.10;99388.81;5072487;28;20325;-34
2022/11/18 05:30:55;;;;;;;;;;;;;;;5.38;82.50;99392.31;5071641;28;19923;-34
2022/11/18 05:33:20;;;;;;;;;;;;;;;5.39;82.10;99394.06;5070050;28;19917;-34
2022/11/18 05:35:45;;;;;;;;;;;;;;;5.38;82.26;99394.94;5084454;28;19922;-34
2022/11/18 05:38:11;;;;;;;;;;;;;;;5.37;82.42;99404.53;5075993;28;20011;-32
2022/11/18 05:40:36;;;;;;;;;;;;;;;5.36;82.52;99410.63;5074594;28;20019;-32
2022/11/18 05:43:10;;;;;;;;;;;;;;;5.34;82.47;99408.91;5057940;28;19990;-32
2022/11/18 05:45:36;;;;;;;;;;;;;;;5.35;82.11;99415.88;5069930;28;19931;-33
2022/11/18 05:48:03;;;;;;;;;;;;;;;5.34;82.26;99420.22;5071636;28;19916;-33
2022/11/18 05:50:28;;;;;;;;;;;;;;;5.35;82.35;99421.09;5085596;28;19923;-32
2022/11/18 05:52:53;;;;;;;;;;;;;;;5.34;81.93;99429.84;5066156;28;20375;-35
2022/11/18 05:55:19;;;;;;;;;;;;;;;5.33;82.45;99428.13;5066929;28;19923;-33
2022/11/18 05:57:44;;;;;;;;;;;;;;;5.31;81.99;99435.09;5082009;28;19920;-32
2022/11/18 06:00:09;;;;;;;;;;;;;;;5.31;82.01;99429.84;5066510;28;19913;-33
2022/11/18 06:02:35;;;;;;;;;;;;;;;5.29;82.33;99437.72;5072500;28;19916;-33
2022/11/18 06:05:00;;;;;;;;;;;;;;;5.30;82.33;99435.97;5074546;28;19916;-33
2022/11/18 06:07:27;;;;;;;;;;;;;;;5.29;82.03;99436.84;5070362;28;19924;-33
2022/11/18 06:09:54;;;;;;;;;;;;;;;5.27;81.98;99434.25;5071644;28;19916;-33
2022/11/18 06:12:19;;;;;;;;;;;;;;;5.26;82.06;99438.59;5066594;28;19927;-33
2022/11/18 06:14:46;;;;;;;;;;;;;;;5.28;81.75;99450.78;5081159;28;19912;-32
2022/11/18 06:17:14;;;;;;;;;;;;;;;5.27;81.85;99444.72;5072518;28;20364;-33
2022/11/18 06:19:39;;;;;;;;;;;;;;;5.25;81.93;99457.78;5076285;28;20003;-31
2022/11/18 06:22:04;;;;;;;;;;;;;;;5.24;82.15;99456.03;5035893;28;20456;-31
2022/11/18 06:24:29;;;;;;;;;;;;;;;5.23;81.64;99454.31;5057487;28;19974;-31
2022/11/18 06:26:55;;;;;;;;;;;;;;;5.22;82.41;99460.41;5084127;28;19960;-31
2022/11/18 06:29:20;;;;;;;;;;;;;;;5.22;81.96;99447.34;5075374;28;19919;-31
2022/11/18 06:31:45;;;;;;;;;;;;;;;5.22;82.00;99451.69;5074325;28;20306;-31
2022/11/18 06:34:10;;;;;;;;;;;;;;;5.22;81.78;99460.41;5070830;28;20005;-30
2022/11/18 06:36:36;;;;;;;;;;;;;;;5.21;82.25;99471.75;5089435;28;20010;-30
2022/11/18 06:39:06;;;;;;;;;;;;;;;5.20;82.13;99470.00;5073917;28;19995;-31
2022/11/18 06:41:31;;;;;;;;;;;;;;;5.19;82.13;99475.25;5073444;28;19917;-30
2022/11/18 06:43:56;;;;;;;;;;;;;;;5.18;82.16;99477.00;5078742;28;19923;-30
2022/11/18 06:49:06;;;;;;;;;;;;;;;5.16;82.01;99480.50;5072998;28;20305;-30
2022/11/18 06:51:31;;;;;;;;;;;;;;;5.16;82.04;99486.59;5074266;28;19920;-30
2022/11/18 06:53:56;;;;;;;;;;;;;;;5.15;81.43;99492.69;5072599;28;19920;-30
2022/11/18 06:56:22;;;;;;;;;;;;;;;5.14;81.85;99509.28;5074987;28;19970;-30
2022/11/18 06:58:51;;;;;;;;;;;;;;;5.14;81.33;99507.50;5073117;28;19912;-30
2022/11/18 07:01:16;;;;;;;;;;;;;;;5.14;81.99;99517.13;5074489;28;19916;-31
2022/11/18 07:03:42;;;;;;;;;;;;;;;5.11;81.46;99522.34;5070962;28;19916;-31
2022/11/18 07:06:07;;;;;;;;;;;;;;;5.10;82.23;99518.84;5072064;28;19921;-30
2022/11/18 07:11:06;;;;;;;;;;;;;;;5.10;82.15;99520.63;5040711;28;19925;-33
2022/11/18 07:13:31;;;;;;;;;;;;;;;5.08;81.70;99520.63;5033837;28;19943;-33
2022/11/18 07:16:00;;;;;;;;;;;;;;;5.07;81.89;99525.84;5036055;28;20275;-33
2022/11/18 07:18:30;;;;;;;;;;;;;;;5.05;81.65;99528.47;5044639;28;19913;-33
2022/11/18 07:20:55;;;;;;;;;;;;;;;5.07;81.83;99536.31;5033349;28;20295;-34
2022/11/18 07:23:20;;;;;;;;;;;;;;;5.06;81.15;99537.16;5033036;28;19913;-33
2022/11/18 07:25:46;;;;;;;;;;;;;;;5.05;81.42;99549.38;5033231;28;19913;-33
2022/11/18 07:28:11;;;;;;;;;;;;;;;5.04;81.72;99544.16;5021615;28;19921;-34
2022/11/18 07:30:36;;;;;;;;;;;;;;;5.01;81.49;99545.91;5016950;28;19917;-33
2022/11/18 07:33:03;;;;;;;;;;;;;;;5.04;81.80;99549.38;5030481;28;19921;-33
2022/11/18 07:35:28;;;;;;;;;;;;;;;5.04;81.59;99549.38;5022461;28;19917;-33
2022/11/18 07:37:53;;;;;;;;;;;;;;;5.01;81.25;99543.28;5013406;28;19924;-33
2022/11/18 07:40:18;;;;;;;;;;;;;;;4.99;81.69;99547.66;5013437;28;19920;-33
2022/11/18 07:42:44;;;;;;;;;;;;;;;4.97;81.37;99549.41;5013149;28;19919;-33
2022/11/18 07:45:09;;;;;;;;;;;;;;;4.98;81.85;99550.28;5013743;28;20399;-33
2022/11/18 07:47:35;;;;;;;;;;;;;;;4.96;81.65;99555.50;5017030;28;20308;-33
2022/11/18 07:50:00;;;;;;;;;;;;;;;4.96;81.49;99554.63;5033056;28;19913;-33
2022/11/18 07:52:25;;;;;;;;;;;;;;;4.93;81.25;99555.53;5033174;28;19932;-33
2022/11/18 07:54:50;;;;;;;;;;;;;;;4.92;81.91;99559.03;5032925;28;19920;-33
2022/11/18 07:57:15;;;;;;;;;;;;;;;4.92;81.59;99558.13;5031688;28;19924;-33
2022/11/18 07:59:41;;;;;;;;;;;;;;;4.91;81.67;99579.94;5027967;28;19917;-33
2022/11/18 08:02:06;;;;;;;;;;;;;;;4.90;81.30;99579.03;5013081;28;19917;-33
2022/11/18 08:04:31;;;;;;;;;;;;;;;4.90;81.04;99581.66;5013108;28;19913;-33
2022/11/18 08:06:56;;;;;;;;;;;;;;;4.88;81.14;99578.19;5012915;28;19918;-33
2022/11/18 08:09:21;;;;;;;;;;;;;;;4.87;81.31;99584.31;5011833;28;19972;-33
2022/11/18 08:11:47;;;;;;;;;;;;;;;4.86;81.19;99579.94;5017289;28;19967;-33
2022/11/18 08:14:12;;;;;;;;;;;;;;;4.87;81.39;99582.53;5024469;28;19968;-33
2022/11/18 08:16:37;;;;;;;;;;;;;;;4.85;80.71;99583.44;5032373;28;19913;-33
2022/11/18 08:19:02;;;;;;;;;;;;;;;4.83;80.85;99590.38;5032522;28;19917;-33
2022/11/18 08:21:27;;;;;;;;;;;;;;;4.82;81.46;99589.53;5044515;28;19917;-33
2022/11/18 08:23:56;;;;;;;;;;;;;;;4.81;81.07;99597.38;5012861;28;19913;-33
2022/11/18 08:26:21;;;;;;;;;;;;;;;4.80;81.12;99608.72;5010797;28;19921;-33
2022/11/18 08:28:46;;;;;;;;;;;;;;;4.79;80.94;99604.34;5006443;28;19929;-33
2022/11/18 08:31:13;;;;;;;;;;;;;;;4.79;80.89;99614.78;5020451;28;20451;-33
2022/11/18 08:33:38;;;;;;;;;;;;;;;4.77;80.90;99617.41;5032865;28;20004;-33
2022/11/18 08:36:12;;;;;;;;;;;;;;;4.76;80.82;99620.88;5024671;28;19949;-33
2022/11/18 08:38:37;;;;;;;;;;;;;;;4.75;80.77;99614.81;5013262;28;19913;-33
2022/11/18 08:41:04;;;;;;;;;;;;;;;4.74;80.62;99626.13;5018458;28;20391;-33
2022/11/18 08:43:30;;;;;;;;;;;;;;;4.72;80.99;99633.09;5024084;28;20355;-34
2022/11/18 08:45:55;;;;;;;;;;;;;;;4.71;80.76;99633.94;5014686;28;20406;-33
2022/11/18 08:48:20;;;;;;;;;;;;;;;4.70;80.92;99636.59;5032593;28;19936;-33
2022/11/18 08:50:45;;;;;;;;;;;;;;;4.69;80.72;99640.94;5032419;28;19913;-33
2022/11/18 08:53:11;;;;;;;;;;;;;;;4.68;80.77;99641.81;5016414;28;19921;-33
2022/11/18 08:55:36;;;;;;;;;;;;;;;4.67;80.67;99641.81;5024276;28;19920;-34
2022/11/18 08:58:01;;;;;;;;;;;;;;;4.66;80.93;99648.78;5015272;28;19921;-34
2022/11/18 09:00:26;;;;;;;;;;;;;;;4.65;80.74;99659.22;5015177;28;19959;-33
2022/11/18 09:02:52;;;;;;;;;;;;;;;4.62;81.08;99660.97;5016503;28;19913;-33
2022/11/18 09:05:17;;;;;;;;;;;;;;;4.62;80.84;99654.88;5015661;28;19913;-33
2022/11/18 09:07:42;;;;;;;;;;;;;;;4.61;81.04;99663.59;5015883;28;20446;-33
2022/11/18 09:10:07;;;;;;;;;;;;;;;4.60;81.02;99656.59;5023130;28;19917;-33
2022/11/18 09:12:33;;;;;;;;;;;;;;;4.58;80.76;99660.97;5024110;28;19925;-33
2022/11/18 09:14:58;;;;;;;;;;;;;;;4.57;80.69;99656.63;5016134;28;19914;-33
2022/11/18 09:17:23;;;;;;;;;;;;;;;4.57;80.60;99667.94;5016146;28;19914;-33
2022/11/18 09:19:48;;;;;;;;;;;;;;;4.58;80.39;99671.44;5016027;28;19917;-34
2022/11/18 09:22:15;;;;;;;;;;;;;;;4.55;80.60;99674.03;5023080;28;20368;-33
2022/11/18 09:24:42;;;;;;;;;;;;;;;4.55;80.57;99676.66;5019276;28;20033;-33
2022/11/18 09:27:07;;;;;;;;;;;;;;;4.54;80.81;99682.75;5036301;28;19913;-33
2022/11/18 09:29:32;;;;;;;;;;;;;;;4.52;80.51;99684.47;5018109;28;19963;-33
2022/11/18 09:32:00;;;;;;;;;;;;;;;4.51;81.00;99688.84;5020773;28;19967;-33
2022/11/18 09:34:26;;;;;;;;;;;;;;;4.51;80.45;99687.97;5015598;28;19917;-33
2022/11/18 09:36:54;;;;;;;;;;;;;;;4.49;80.51;99695.78;5023098;28;20463;-33
2022/11/18 09:39:24;;;;;;;;;;;;;;;4.46;80.22;99704.50;5014686;28;19913;-33
2022/11/18 09:42:01;;;;;;;;;;;;;;;4.46;80.78;99704.50;5015626;28;19960;-33
2022/11/18 09:44:32;;;;;;;;;;;;;;;4.44;80.58;99702.78;5014102;28;19917;-33
2022/11/18 09:47:03;;;;;;;;;;;;;;;4.42;80.49;99708.00;5015571;28;19914;-33
2022/11/18 09:49:33;;;;;;;;;;;;;;;4.42;80.55;99714.94;5019768;28;20402;-33
2022/11/18 09:52:03;;;;;;;;;;;;;;;4.42;80.61;99721.03;5017318;28;20697;-33
2022/11/18 09:54:34;;;;;;;;;;;;;;;4.39;80.92;99722.75;5017439;28;19970;-33
2022/11/18 09:57:00;;;;;;;;;;;;;;;4.38;80.65;99724.53;5035322;28;19914;-33
2022/11/18 09:59:35;;;;;;;;;;;;;;;4.38;80.84;99726.25;5017258;28;19917;-33
2022/11/18 10:02:26;;;;;;;;;;;;;;;4.38;80.33;99723.63;5021773;28;20015;-34
2022/11/18 10:04:53;;;;;;;;;;;;;;;4.35;80.02;99724.50;4978459;28;19914;-33
2022/11/18 10:07:19;;;;;;;;;;;;;;;4.34;80.13;99730.63;5026162;28;19914;-33
2022/11/18 10:09:45;;;;;;;;;;;;;;;4.32;80.44;99734.94;5017060;28;19925;-33
2022/11/18 10:12:22;;;;;;;;;;;;;;;4.28;80.76;99739.31;5017180;28;20403;-33
2022/11/18 10:15:06;;;;;;;;;;;;;;;4.29;80.10;99737.53;5011613;28;19918;-33
2022/11/18 10:17:54;;;;;;;;;;;;;;;4.29;79.99;99741.03;5025253;28;20368;-33
2022/11/18 10:20:36;;;;;;;;;;;;;;;4.27;80.11;99740.16;5034718;28;19966;-33
2022/11/18 10:23:01;;;;;;;;;;;;;;;4.24;80.74;99748.00;4997153;28;20029;-34
2022/11/18 10:25:26;;;;;;;;;;;;;;;4.24;80.26;99746.25;5014712;28;20387;-33
2022/11/18 10:27:51;;;;;;;;;;;;;;;4.22;80.28;99748.00;5014739;28;19913;-33
2022/11/18 10:30:18;;;;;;;;;;;;;;;4.23;79.97;99752.34;5021245;28;19917;-33
2022/11/18 10:32:57;;;;;;;;;;;;;;;4.20;80.55;99757.56;5014462;28;19961;-33
2022/11/18 10:35:23;;;;;;;;;;;;;;;4.19;80.10;99761.03;5014724;28;19960;-33
2022/11/18 10:37:53;;;;;;;;;;;;;;;4.20;80.11;99770.59;5013293;28;19924;-33
2022/11/18 10:40:32;;;;;;;;;;;;;;;4.18;80.12;99774.97;4997880;28;19920;-33
2022/11/18 10:42:57;;;;;;;;;;;;;;;4.14;80.35;99761.88;5013420;28;19971;-33
2022/11/18 10:45:24;;;;;;;;;;;;;;;4.14;80.56;99765.38;5004945;28;19913;-33
2022/11/18 10:47:58;;;;;;;;;;;;;;;4.14;80.57;99778.44;5014623;28;20292;-33
2022/11/18 10:50:34;;;;;;;;;;;;;;;4.13;80.15;99778.44;5014349;28;20368;-33
2022/11/18 10:52:59;;;;;;;;;;;;;;;4.12;79.87;99780.16;5014373;28;19917;-33
2022/11/18 10:55:25;;;;;;;;;;;;;;;4.11;80.29;99784.50;5013989;28;19933;-33
2022/11/18 10:57:58;;;;;;;;;;;;;;;4.11;80.59;99788.84;5011467;28;19968;-33
2022/11/18 11:00:33;;;;;;;;;;;;;;;4.11;79.91;99791.47;5022246;28;19913;-33
2022/11/18 11:02:58;;;;;;;;;;;;;;;4.11;80.17;99788.84;5014274;28;19913;-33
2022/11/18 11:05:23;;;;;;;;;;;;;;;4.11;80.58;99799.28;5014055;28;20020;-33
2022/11/18 11:08:05;;;;;;;;;;;;;;;4.08;80.34;99809.72;4996649;28;20382;-33
2022/11/18 11:10:30;;;;;;;;;;;;;;;4.06;80.00;99806.22;5013492;28;20299;-33
2022/11/18 11:12:59;;;;;;;;;;;;;;;4.04;79.79;99806.22;5021230;28;19925;-34
2022/11/18 11:15:33;;;;;;;;;;;;;;;4.02;80.25;99809.69;5030177;28;19936;-33
2022/11/18 11:20:43;;;;;;;;;;;;;;;4.00;79.89;99812.28;5018463;28;19920;-33
2022/11/18 11:23:09;;;;;;;;;;;;;;;3.98;80.19;99812.28;5033739;28;19913;-33
2022/11/18 11:25:48;;;;;;;;;;;;;;;4.00;79.92;99816.66;5008059;28;19917;-33
2022/11/18 11:28:17;;;;;;;;;;;;;;;3.96;79.71;99818.34;5015839;28;20376;-33
2022/11/18 11:30:46;;;;;;;;;;;;;;;3.97;79.96;99820.97;5021209;28;19918;-33
2022/11/18 11:33:45;;;;;;;;;;;;;;;3.97;80.10;99823.59;5012087;28;19917;-34
2022/11/18 11:36:29;;;;;;;;;;;;;;;3.96;79.84;99821.84;4995884;28;20407;-33
2022/11/18 11:38:58;;;;;;;;;;;;;;;3.95;79.88;99822.72;5012887;28;19917;-33
2022/11/18 11:41:25;;;;;;;;;;;;;;;3.93;80.06;99816.63;5018396;28;19918;-33
2022/11/18 11:44:01;;;;;;;;;;;;;;;3.93;80.29;99832.28;5002886;28;19928;-33
2022/11/18 11:47:45;;;;;;;;;;;;;;;3.93;80.16;99834.00;5033204;28;19914;-33
2022/11/18 11:49:33;;;;;;;;;;;;;;;3.91;80.01;99836.63;5022250;28;19913;-33
2022/11/18 11:52:01;;;;;;;;;;;;;;;3.90;79.99;99839.22;5013388;28;20300;-33
2022/11/18 11:54:39;;;;;;;;;;;;;;;3.90;79.81;99837.47;4995929;28;19928;-33
2022/11/18 11:57:10;;;;;;;;;;;;;;;3.88;79.93;99836.59;5021844;28;20071;-33
2022/11/18 11:59:38;;;;;;;;;;;;;;;3.87;80.20;99850.50;4997432;28;19929;-33
2022/11/18 12:02:22;;;;;;;;;;;;;;;3.85;80.18;99845.28;5023746;28;19917;-33
2022/11/18 12:04:57;;;;;;;;;;;;;;;3.86;79.88;99851.38;5020895;28;19925;-33
2022/11/18 12:07:28;;;;;;;;;;;;;;;3.85;79.70;99862.66;5008777;28;20375;-34
2022/11/18 12:10:02;;;;;;;;;;;;;;;3.82;79.58;99860.91;5007953;28;20257;-34
2022/11/18 12:12:37;;;;;;;;;;;;;;;3.82;79.96;99855.72;4997508;28;19921;-33
2022/11/18 12:15:19;;;;;;;;;;;;;;;3.79;79.28;99860.91;5014179;28;19924;-33
2022/11/18 12:18:04;;;;;;;;;;;;;;;3.79;80.02;99860.00;4994909;28;19917;-33
2022/11/18 12:20:46;;;;;;;;;;;;;;;3.79;79.26;99862.63;4992825;28;19986;-33
2022/11/18 12:23:12;;;;;;;;;;;;;;;3.77;79.97;99861.75;4992671;28;19921;-33
2022/11/18 12:25:47;;;;;;;;;;;;;;;3.76;79.67;99862.63;4996973;28;19914;-33
2022/11/18 12:28:28;;;;;;;;;;;;;;;3.74;79.44;99864.34;5014515;28;19920;-33
2022/11/18 12:31:12;;;;;;;;;;;;;;;3.74;79.88;99866.94;4999226;28;20265;-33
2022/11/18 12:33:41;;;;;;;;;;;;;;;3.72;79.75;99869.56;5021489;28;20295;-33
2022/11/18 12:36:07;;;;;;;;;;;;;;;3.72;79.63;99874.75;5009777;28;19920;-33
2022/11/18 12:38:32;;;;;;;;;;;;;;;3.71;79.13;99873.03;5018772;28;19918;-33
2022/11/18 12:40:57;;;;;;;;;;;;;;;3.69;79.50;99867.81;5032651;28;19917;-34
2022/11/18 12:46:13;;;;;;;;;;;;;;;3.67;79.22;99876.47;5015239;28;19926;-33
2022/11/18 12:48:39;;;;;;;;;;;;;;;3.66;78.91;99879.94;5017585;28;19984;-34
2022/11/18 12:51:13;;;;;;;;;;;;;;;3.64;79.27;99882.56;5021329;28;20265;-33
2022/11/18 12:53:42;;;;;;;;;;;;;;;3.63;79.19;99879.94;5050198;28;19917;-33
2022/11/18 12:56:16;;;;;;;;;;;;;;;3.62;78.85;99896.44;5004181;28;19960;-34
2022/11/18 12:58:52;;;;;;;;;;;;;;;3.60;79.00;99893.81;5018609;28;19979;-33
2022/11/18 13:01:18;;;;;;;;;;;;;;;3.59;79.48;99902.50;5032229;28;19924;-33
2022/11/18 13:03:43;;;;;;;;;;;;;;;3.55;79.32;99909.44;5030771;28;19922;-33
2022/11/18 13:06:15;;;;;;;;;;;;;;;3.53;79.10;99907.69;5015238;28;19971;-33
2022/11/18 13:08:40;;;;;;;;;;;;;;;3.52;79.38;99909.41;4995442;28;19917;-33
2022/11/18 13:19:27;;;;;;;;;;;;;;;3.46;78.65;99920.66;5030101;28;19974;-33
2022/11/18 13:24:42;;;;;;;;;;;;;;;3.44;79.21;99921.53;5012371;28;19944;-33
2022/11/18 13:27:07;;;;;;;;;;;;;;;3.42;78.92;99918.91;5027435;28;20013;-34
2022/11/18 13:29:54;;;;;;;;;;;;;;;3.42;79.05;99929.31;4996911;28;20032;-33
2022/11/18 13:32:23;;;;;;;;;;;;;;;3.40;78.94;99928.41;4997677;28;19918;-33
2022/11/18 13:34:49;;;;;;;;;;;;;;;3.39;78.81;99942.31;4981063;28;19997;-33